This is the latest recevied weather packets stored in our database for station/object AI5ON. If no packets are shown the sender has not sent any weather packets the latest 10 day(s).
| Time | Temp. | Humidity | Pressure | Rain* | Wind** | Luminosity | Snow |
|---|---|---|---|---|---|---|---|
| 1788025337 | 34.44° C | 52% | 1017.5 hPa | 0 mm | - | 913 W/m² | - |
| 1788025032 | 34.44° C | 58% | 1017.5 hPa | 0 mm | - | 909 W/m² | - |
| 1788024727 | 35° C | 53% | 1017.5 hPa | 0 mm | - | 897 W/m² | - |
| 1788024423 | 34.44° C | 55% | 1017.7 hPa | 0 mm | - | 885 W/m² | - |
| 1788024117 | 34.44° C | 54% | 1017.4 hPa | 0 mm | - | 885 W/m² | - |
| 1788023813 | 35° C | 55% | 1017.8 hPa | 0 mm | - | 875 W/m² | - |
| 1788023508 | 34.44° C | 60% | 1017.7 hPa | 0 mm | - | 864 W/m² | - |
| 1788023203 | 33.89° C | 61% | 1017.8 hPa | 0 mm | - | 856 W/m² | - |
| 1788022898 | 34.44° C | 58% | 1017.6 hPa | 0 mm | - | 844 W/m² | - |
| 1788022594 | 33.89° C | 60% | 1017.7 hPa | 0 mm | - | 841 W/m² | - |
| 1788022290 | 34.44° C | 58% | 1017.8 hPa | 0 mm | - | 828 W/m² | - |
| 1788021988 | 34.44° C | 58% | 1017.7 hPa | 0 mm | - | 828 W/m² | - |
| 1788021683 | 34.44° C | 56% | 1017.5 hPa | 0 mm | - | 817 W/m² | - |
| 1788021381 | 35° C | 57% | 1017.6 hPa | 0 mm | - | 805 W/m² | - |
| 1788021076 | 34.44° C | 58% | 1017.8 hPa | 0 mm | - | 794 W/m² | - |
| 1788020772 | 35° C | 58% | 1017.8 hPa | 0 mm | - | 783 W/m² | - |
| 1788020472 | 33.89° C | 60% | 1017.6 hPa | 0 mm | - | 773 W/m² | - |
| 1788020168 | 33.89° C | 60% | 1017.8 hPa | 0 mm | - | 753 W/m² | - |
| 1788019863 | 33.89° C | 61% | 1017.6 hPa | 0 mm | - | 743 W/m² | - |
| 1788019563 | 33.33° C | 62% | 1017.8 hPa | 0 mm | - | 730 W/m² | - |
| 1788019263 | 32.78° C | 63% | 1017.7 hPa | 0 mm | - | 712 W/m² | - |
| 1788018961 | 33.33° C | 61% | 1017.9 hPa | 0 mm | - | 696 W/m² | - |
| 1788018656 | 32.78° C | 63% | 1017.7 hPa | 0 mm | - | 687 W/m² | - |
| 1788018355 | 32.78° C | 65% | 1017.8 hPa | 0 mm | - | 669 W/m² | - |
| 1788018050 | 32.22° C | 65% | 1017.4 hPa | 0 mm | - | 658 W/m² | - |
* Rain latest hour (hover to see other rain measurements)
** Current wind speed in m/s (hover to see current wind gust speed)